sensor_id;sensor_type;location;lat;lon;timestamp;pressure;altitude;pressure_sealevel;temperature;humidity
51083;BME280;37131;42.694;23.350;2022-07-04T00:00:07;95693.72;;;21.66;59.10
51083;BME280;37131;42.694;23.350;2022-07-04T00:02:34;95696.78;;;21.49;59.35
51083;BME280;37131;42.694;23.350;2022-07-04T00:05:00;95697.56;;;21.25;59.60
51083;BME280;37131;42.694;23.350;2022-07-04T00:07:25;95696.31;;;21.42;59.50
51083;BME280;37131;42.694;23.350;2022-07-04T00:09:51;95699.09;;;21.31;59.74
51083;BME280;37131;42.694;23.350;2022-07-04T00:12:16;95685.56;;;21.03;60.89
51083;BME280;37131;42.694;23.350;2022-07-04T00:14:42;95687.16;;;20.75;61.93
51083;BME280;37131;42.694;23.350;2022-07-04T00:17:07;95690.94;;;20.98;60.80
51083;BME280;37131;42.694;23.350;2022-07-04T00:19:33;95692.81;;;20.98;60.84
51083;BME280;37131;42.694;23.350;2022-07-04T00:21:58;95693.06;;;20.96;60.97
51083;BME280;37131;42.694;23.350;2022-07-04T00:24:24;95701.72;;;20.73;61.41
51083;BME280;37131;42.694;23.350;2022-07-04T00:26:49;95689.50;;;20.82;61.20
51083;BME280;37131;42.694;23.350;2022-07-04T00:29:15;95699.91;;;21.02;60.45
51083;BME280;37131;42.694;23.350;2022-07-04T00:31:40;95689.53;;;21.06;60.33
51083;BME280;37131;42.694;23.350;2022-07-04T00:34:06;95695.94;;;21.00;60.10
51083;BME280;37131;42.694;23.350;2022-07-04T00:36:32;95683.94;;;20.78;60.39
51083;BME280;37131;42.694;23.350;2022-07-04T00:38:57;95687.53;;;20.93;60.04
51083;BME280;37131;42.694;23.350;2022-07-04T00:41:23;95687.50;;;20.98;59.87
51083;BME280;37131;42.694;23.350;2022-07-04T00:44:06;95678.44;;;21.04;59.71
51083;BME280;37131;42.694;23.350;2022-07-04T00:46:32;95679.25;;;20.70;60.43
51083;BME280;37131;42.694;23.350;2022-07-04T00:48:58;95675.78;;;20.75;60.52
51083;BME280;37131;42.694;23.350;2022-07-04T00:51:25;95684.41;;;20.51;61.37
51083;BME280;37131;42.694;23.350;2022-07-04T00:53:52;95690.06;;;20.74;60.51
51083;BME280;37131;42.694;23.350;2022-07-04T00:56:18;95678.28;;;20.90;59.89
51083;BME280;37131;42.694;23.350;2022-07-04T00:58:44;95681.81;;;20.80;59.52
51083;BME280;37131;42.694;23.350;2022-07-04T01:01:10;95677.50;;;20.90;59.33
51083;BME280;37131;42.694;23.350;2022-07-04T01:03:36;95659.06;;;20.74;59.22
51083;BME280;37131;42.694;23.350;2022-07-04T01:06:01;95672.06;;;20.76;59.36
51083;BME280;37131;42.694;23.350;2022-07-04T01:08:27;95675.28;;;20.67;59.37
51083;BME280;37131;42.694;23.350;2022-07-04T01:10:53;95681.78;;;20.46;59.82
51083;BME280;37131;42.694;23.350;2022-07-04T01:13:22;95675.50;;;20.71;59.18
51083;BME280;37131;42.694;23.350;2022-07-04T01:15:48;95674.78;;;20.60;59.98
51083;BME280;37131;42.694;23.350;2022-07-04T01:18:14;95671.09;;;20.61;58.67
51083;BME280;37131;42.694;23.350;2022-07-04T01:20:40;95677.28;;;20.86;57.41
51083;BME280;37131;42.694;23.350;2022-07-04T01:23:05;95683.50;;;20.61;57.81
51083;BME280;37131;42.694;23.350;2022-07-04T01:25:32;95680.59;;;20.28;58.78
51083;BME280;37131;42.694;23.350;2022-07-04T01:28:02;95680.50;;;20.38;58.80
51083;BME280;37131;42.694;23.350;2022-07-04T01:30:28;95674.03;;;20.55;59.42
51083;BME280;37131;42.694;23.350;2022-07-04T01:32:55;95679.19;;;20.36;58.82
51083;BME280;37131;42.694;23.350;2022-07-04T01:35:21;95678.53;;;20.14;59.04
51083;BME280;37131;42.694;23.350;2022-07-04T01:37:47;95668.53;;;20.46;57.75
51083;BME280;37131;42.694;23.350;2022-07-04T01:40:12;95678.13;;;20.42;58.38
51083;BME280;37131;42.694;23.350;2022-07-04T01:42:39;95677.78;;;20.48;57.28
51083;BME280;37131;42.694;23.350;2022-07-04T01:45:05;95679.69;;;20.43;57.30
51083;BME280;37131;42.694;23.350;2022-07-04T01:47:31;95683.88;;;20.49;57.20
51083;BME280;37131;42.694;23.350;2022-07-04T01:49:56;95685.09;;;20.62;56.62
51083;BME280;37131;42.694;23.350;2022-07-04T01:52:21;95689.56;;;20.27;58.19
51083;BME280;37131;42.694;23.350;2022-07-04T01:54:47;95675.50;;;20.37;56.77
51083;BME280;37131;42.694;23.350;2022-07-04T01:57:12;95681.97;;;20.55;56.38
51083;BME280;37131;42.694;23.350;2022-07-04T01:59:39;95684.63;;;20.15;57.15
51083;BME280;37131;42.694;23.350;2022-07-04T02:02:23;95687.38;;;19.94;57.55
51083;BME280;37131;42.694;23.350;2022-07-04T02:04:49;95679.94;;;20.02;57.35
51083;BME280;37131;42.694;23.350;2022-07-04T02:07:14;95691.06;;;19.98;57.33
51083;BME280;37131;42.694;23.350;2022-07-04T02:09:40;95682.28;;;20.08;56.67
51083;BME280;37131;42.694;23.350;2022-07-04T02:12:05;95692.41;;;19.96;56.97
51083;BME280;37131;42.694;23.350;2022-07-04T02:14:50;95684.34;;;20.16;56.47
51083;BME280;37131;42.694;23.350;2022-07-04T02:17:15;95671.97;;;20.07;56.31
51083;BME280;37131;42.694;23.350;2022-07-04T02:19:40;95689.06;;;20.25;55.49
51083;BME280;37131;42.694;23.350;2022-07-04T02:22:06;95684.69;;;20.05;56.25
51083;BME280;37131;42.694;23.350;2022-07-04T02:24:31;95699.75;;;20.09;55.55
51083;BME280;37131;42.694;23.350;2022-07-04T02:26:57;95699.28;;;20.02;56.11
51083;BME280;37131;42.694;23.350;2022-07-04T02:29:22;95691.69;;;19.80;56.22
51083;BME280;37131;42.694;23.350;2022-07-04T02:31:48;95692.81;;;19.58;56.78
51083;BME280;37131;42.694;23.350;2022-07-04T02:34:13;95696.00;;;19.55;56.82
51083;BME280;37131;42.694;23.350;2022-07-04T02:36:39;95702.41;;;19.39;57.03
51083;BME280;37131;42.694;23.350;2022-07-04T02:39:04;95693.59;;;19.64;56.70
51083;BME280;37131;42.694;23.350;2022-07-04T02:41:31;95702.00;;;19.76;55.60
51083;BME280;37131;42.694;23.350;2022-07-04T02:43:56;95693.28;;;19.76;55.57
51083;BME280;37131;42.694;23.350;2022-07-04T02:46:23;95694.81;;;19.92;55.09
51083;BME280;37131;42.694;23.350;2022-07-04T02:48:48;95695.88;;;19.91;54.39
51083;BME280;37131;42.694;23.350;2022-07-04T02:51:14;95702.88;;;20.16;53.99
51083;BME280;37131;42.694;23.350;2022-07-04T02:53:40;95694.13;;;20.21;53.85
51083;BME280;37131;42.694;23.350;2022-07-04T02:56:05;95699.91;;;20.28;53.24
51083;BME280;37131;42.694;23.350;2022-07-04T02:58:32;95692.81;;;20.19;53.36
51083;BME280;37131;42.694;23.350;2022-07-04T03:00:57;95705.00;;;20.20;53.25
51083;BME280;37131;42.694;23.350;2022-07-04T03:03:23;95719.13;;;20.00;54.30
51083;BME280;37131;42.694;23.350;2022-07-04T03:05:48;95713.56;;;19.96;54.38
51083;BME280;37131;42.694;23.350;2022-07-04T03:08:14;95715.91;;;20.08;54.06
51083;BME280;37131;42.694;23.350;2022-07-04T03:10:39;95709.41;;;20.35;53.62
51083;BME280;37131;42.694;23.350;2022-07-04T03:13:05;95711.06;;;20.20;54.31
51083;BME280;37131;42.694;23.350;2022-07-04T03:15:31;95723.53;;;20.20;53.05
51083;BME280;37131;42.694;23.350;2022-07-04T03:17:56;95724.38;;;20.10;53.03
51083;BME280;37131;42.694;23.350;2022-07-04T03:20:22;95721.22;;;20.08;52.39
51083;BME280;37131;42.694;23.350;2022-07-04T03:22:47;95707.91;;;20.18;52.27
51083;BME280;37131;42.694;23.350;2022-07-04T03:25:13;95722.00;;;20.03;54.25
51083;BME280;37131;42.694;23.350;2022-07-04T03:27:39;95724.53;;;20.29;53.11
51083;BME280;37131;42.694;23.350;2022-07-04T03:30:05;95723.88;;;20.08;53.36
51083;BME280;37131;42.694;23.350;2022-07-04T03:32:30;95724.88;;;20.12;53.87
51083;BME280;37131;42.694;23.350;2022-07-04T03:34:56;95724.16;;;20.01;55.37
51083;BME280;37131;42.694;23.350;2022-07-04T03:37:21;95723.00;;;20.18;53.07
51083;BME280;37131;42.694;23.350;2022-07-04T03:39:47;95718.34;;;19.94;52.48
51083;BME280;37131;42.694;23.350;2022-07-04T03:42:12;95723.63;;;19.99;52.73
51083;BME280;37131;42.694;23.350;2022-07-04T03:44:37;95716.47;;;20.00;52.17
51083;BME280;37131;42.694;23.350;2022-07-04T03:47:03;95713.06;;;19.94;51.78
51083;BME280;37131;42.694;23.350;2022-07-04T03:49:28;95720.41;;;20.07;51.45
51083;BME280;37131;42.694;23.350;2022-07-04T03:51:54;95722.09;;;19.88;52.51
51083;BME280;37131;42.694;23.350;2022-07-04T03:54:19;95718.56;;;20.08;52.80
51083;BME280;37131;42.694;23.350;2022-07-04T03:56:45;95716.66;;;20.19;50.64
51083;BME280;37131;42.694;23.350;2022-07-04T03:59:10;95711.75;;;20.41;51.77
51083;BME280;37131;42.694;23.350;2022-07-04T04:01:36;95717.34;;;20.35;52.70
51083;BME280;37131;42.694;23.350;2022-07-04T04:04:01;95718.63;;;19.97;53.94
51083;BME280;37131;42.694;23.350;2022-07-04T04:06:45;95714.44;;;19.86;53.91
51083;BME280;37131;42.694;23.350;2022-07-04T04:09:10;95721.13;;;19.58;54.58
51083;BME280;37131;42.694;23.350;2022-07-04T04:11:44;95719.00;;;19.55;55.27
51083;BME280;37131;42.694;23.350;2022-07-04T04:14:10;95723.44;;;19.75;55.16
51083;BME280;37131;42.694;23.350;2022-07-04T04:16:36;95730.91;;;19.52;55.43
51083;BME280;37131;42.694;23.350;2022-07-04T04:19:02;95732.50;;;19.53;55.87
51083;BME280;37131;42.694;23.350;2022-07-04T04:21:27;95733.53;;;19.57;56.02
51083;BME280;37131;42.694;23.350;2022-07-04T04:23:53;95652.50;;;19.01;55.41
51083;BME280;37131;42.694;23.350;2022-07-04T04:26:18;95736.75;;;19.44;55.92
51083;BME280;37131;42.694;23.350;2022-07-04T04:28:43;95735.38;;;19.62;55.63
51083;BME280;37131;42.694;23.350;2022-07-04T04:31:09;95735.19;;;19.43;55.67
51083;BME280;37131;42.694;23.350;2022-07-04T04:33:35;95730.09;;;19.57;55.99
51083;BME280;37131;42.694;23.350;2022-07-04T04:36:01;95733.59;;;19.37;56.96
51083;BME280;37131;42.694;23.350;2022-07-04T04:38:27;95729.03;;;19.68;56.44
51083;BME280;37131;42.694;23.350;2022-07-04T04:40:52;95735.88;;;19.69;57.69
51083;BME280;37131;42.694;23.350;2022-07-04T04:43:18;95737.88;;;20.08;56.52
51083;BME280;37131;42.694;23.350;2022-07-04T04:45:43;95728.78;;;20.30;55.83
51083;BME280;37131;42.694;23.350;2022-07-04T04:48:08;95724.44;;;20.44;55.75
51083;BME280;37131;42.694;23.350;2022-07-04T04:50:34;95736.47;;;20.26;59.65
51083;BME280;37131;42.694;23.350;2022-07-04T04:53:00;95726.81;;;20.46;59.08
51083;BME280;37131;42.694;23.350;2022-07-04T04:55:26;95727.91;;;20.40;59.55
51083;BME280;37131;42.694;23.350;2022-07-04T04:57:51;95736.28;;;20.07;60.27
51083;BME280;37131;42.694;23.350;2022-07-04T05:00:17;95732.31;;;20.05;56.67
51083;BME280;37131;42.694;23.350;2022-07-04T05:02:42;95732.91;;;20.46;58.05
51083;BME280;37131;42.694;23.350;2022-07-04T05:05:08;95736.63;;;20.85;55.95
51083;BME280;37131;42.694;23.350;2022-07-04T05:07:34;95724.63;;;20.53;60.20
51083;BME280;37131;42.694;23.350;2022-07-04T05:09:59;95722.44;;;20.71;59.79
51083;BME280;37131;42.694;23.350;2022-07-04T05:12:26;95719.06;;;20.55;54.94
51083;BME280;37131;42.694;23.350;2022-07-04T05:14:53;95699.38;;;20.71;56.89
51083;BME280;37131;42.694;23.350;2022-07-04T05:17:18;95724.25;;;21.10;57.26
51083;BME280;37131;42.694;23.350;2022-07-04T05:19:44;95713.78;;;21.18;54.13
51083;BME280;37131;42.694;23.350;2022-07-04T05:22:09;95719.25;;;21.03;52.92
51083;BME280;37131;42.694;23.350;2022-07-04T05:24:36;95718.00;;;20.95;52.99
51083;BME280;37131;42.694;23.350;2022-07-04T05:27:05;95722.75;;;20.98;55.72
51083;BME280;37131;42.694;23.350;2022-07-04T05:29:30;95725.75;;;20.87;53.72
51083;BME280;37131;42.694;23.350;2022-07-04T05:31:56;95730.31;;;20.81;53.26
51083;BME280;37131;42.694;23.350;2022-07-04T05:34:21;95728.59;;;20.95;53.90
51083;BME280;37131;42.694;23.350;2022-07-04T05:36:46;95729.91;;;20.98;52.43
51083;BME280;37131;42.694;23.350;2022-07-04T05:39:12;95727.56;;;21.20;54.34
51083;BME280;37131;42.694;23.350;2022-07-04T05:41:37;95733.84;;;21.30;53.79
51083;BME280;37131;42.694;23.350;2022-07-04T05:44:03;95729.47;;;21.15;52.52
51083;BME280;37131;42.694;23.350;2022-07-04T05:46:28;95726.31;;;21.42;51.28
51083;BME280;37131;42.694;23.350;2022-07-04T05:48:54;95712.53;;;21.40;50.56
51083;BME280;37131;42.694;23.350;2022-07-04T05:51:19;95725.00;;;21.40;50.34
51083;BME280;37131;42.694;23.350;2022-07-04T05:53:45;95715.50;;;21.63;49.06
51083;BME280;37131;42.694;23.350;2022-07-04T05:56:10;95725.19;;;21.48;48.35
51083;BME280;37131;42.694;23.350;2022-07-04T05:58:36;95727.34;;;21.17;49.14
51083;BME280;37131;42.694;23.350;2022-07-04T06:01:01;95728.97;;;21.13;49.21
51083;BME280;37131;42.694;23.350;2022-07-04T06:03:27;95726.13;;;21.33;49.14
51083;BME280;37131;42.694;23.350;2022-07-04T06:05:52;95729.84;;;21.03;50.38
51083;BME280;37131;42.694;23.350;2022-07-04T06:08:18;95728.78;;;21.33;50.34
51083;BME280;37131;42.694;23.350;2022-07-04T06:10:45;95720.66;;;21.25;50.69
51083;BME280;37131;42.694;23.350;2022-07-04T06:13:11;95728.22;;;21.66;49.28
51083;BME280;37131;42.694;23.350;2022-07-04T06:15:36;95727.66;;;21.69;50.03
51083;BME280;37131;42.694;23.350;2022-07-04T06:18:02;95730.47;;;21.97;49.59
51083;BME280;37131;42.694;23.350;2022-07-04T06:20:28;95724.38;;;22.20;49.48
51083;BME280;37131;42.694;23.350;2022-07-04T06:22:54;95724.13;;;21.73;49.55
51083;BME280;37131;42.694;23.350;2022-07-04T06:25:19;95719.44;;;22.08;49.72
51083;BME280;37131;42.694;23.350;2022-07-04T06:27:47;95721.47;;;22.17;49.30
51083;BME280;37131;42.694;23.350;2022-07-04T06:30:13;95717.69;;;22.42;48.96
51083;BME280;37131;42.694;23.350;2022-07-04T06:35:07;95708.13;;;22.60;49.64
51083;BME280;37131;42.694;23.350;2022-07-04T06:37:52;95704.78;;;22.87;47.77
51083;BME280;37131;42.694;23.350;2022-07-04T06:40:17;95707.16;;;22.89;49.56
51083;BME280;37131;42.694;23.350;2022-07-04T06:42:43;95717.38;;;22.24;49.66
51083;BME280;37131;42.694;23.350;2022-07-04T06:45:09;95708.06;;;22.27;50.49
51083;BME280;37131;42.694;23.350;2022-07-04T06:47:35;95710.03;;;22.73;48.46
51083;BME280;37131;42.694;23.350;2022-07-04T06:50:00;95711.75;;;23.16;49.88
51083;BME280;37131;42.694;23.350;2022-07-04T06:52:26;95711.22;;;23.33;50.23
51083;BME280;37131;42.694;23.350;2022-07-04T06:54:51;95704.97;;;23.10;47.51
51083;BME280;37131;42.694;23.350;2022-07-04T06:57:16;95700.88;;;23.32;48.35
51083;BME280;37131;42.694;23.350;2022-07-04T06:59:42;95700.06;;;23.17;48.01
51083;BME280;37131;42.694;23.350;2022-07-04T07:02:07;95704.38;;;23.13;48.93
51083;BME280;37131;42.694;23.350;2022-07-04T07:04:33;95692.06;;;23.31;48.34
51083;BME280;37131;42.694;23.350;2022-07-04T07:06:58;95691.59;;;23.71;48.71
51083;BME280;37131;42.694;23.350;2022-07-04T07:09:24;95687.78;;;23.91;47.54
51083;BME280;37131;42.694;23.350;2022-07-04T07:11:49;95692.69;;;23.56;46.86
51083;BME280;37131;42.694;23.350;2022-07-04T07:14:15;95685.66;;;23.74;47.79
51083;BME280;37131;42.694;23.350;2022-07-04T07:16:40;95682.47;;;24.13;44.81
51083;BME280;37131;42.694;23.350;2022-07-04T07:19:05;95684.91;;;24.38;45.26
51083;BME280;37131;42.694;23.350;2022-07-04T07:21:31;95677.78;;;24.33;45.70
51083;BME280;37131;42.694;23.350;2022-07-04T07:23:56;95678.16;;;24.40;44.26
51083;BME280;37131;42.694;23.350;2022-07-04T07:26:22;95665.03;;;24.44;44.77
51083;BME280;37131;42.694;23.350;2022-07-04T07:28:47;95672.78;;;24.54;45.76
51083;BME280;37131;42.694;23.350;2022-07-04T07:31:13;95675.59;;;24.72;45.08
51083;BME280;37131;42.694;23.350;2022-07-04T07:33:39;95670.66;;;24.42;45.54
51083;BME280;37131;42.694;23.350;2022-07-04T07:36:05;95668.03;;;24.65;44.00
51083;BME280;37131;42.694;23.350;2022-07-04T07:38:30;95666.84;;;24.80;45.16
51083;BME280;37131;42.694;23.350;2022-07-04T07:40:56;95667.25;;;24.96;45.64
51083;BME280;37131;42.694;23.350;2022-07-04T07:43:21;95662.59;;;24.56;46.13
51083;BME280;37131;42.694;23.350;2022-07-04T07:45:46;95666.84;;;24.34;47.43
51083;BME280;37131;42.694;23.350;2022-07-04T07:48:12;95670.53;;;24.11;47.00
51083;BME280;37131;42.694;23.350;2022-07-04T07:50:37;95671.81;;;24.27;47.51
51083;BME280;37131;42.694;23.350;2022-07-04T07:53:03;95658.81;;;24.71;47.79
51083;BME280;37131;42.694;23.350;2022-07-04T07:55:28;95643.72;;;24.44;45.59
51083;BME280;37131;42.694;23.350;2022-07-04T07:57:54;95645.56;;;24.89;46.40
51083;BME280;37131;42.694;23.350;2022-07-04T08:00:19;95653.56;;;25.20;45.87
51083;BME280;37131;42.694;23.350;2022-07-04T08:02:45;95659.66;;;25.12;45.12
51083;BME280;37131;42.694;23.350;2022-07-04T08:05:28;95653.56;;;25.51;45.47
51083;BME280;37131;42.694;23.350;2022-07-04T08:07:54;95655.28;;;25.16;46.00
51083;BME280;37131;42.694;23.350;2022-07-04T08:10:20;95651.56;;;25.74;45.03
51083;BME280;37131;42.694;23.350;2022-07-04T08:12:45;95650.19;;;25.95;43.54
51083;BME280;37131;42.694;23.350;2022-07-04T08:15:10;95655.25;;;26.14;44.89
51083;BME280;37131;42.694;23.350;2022-07-04T08:17:36;95640.50;;;26.07;43.14
51083;BME280;37131;42.694;23.350;2022-07-04T08:20:03;95648.47;;;26.42;43.02
51083;BME280;37131;42.694;23.350;2022-07-04T08:22:29;95642.03;;;26.61;43.36
51083;BME280;37131;42.694;23.350;2022-07-04T08:24:54;95648.63;;;26.81;43.66
51083;BME280;37131;42.694;23.350;2022-07-04T08:27:19;95647.97;;;26.93;44.04
51083;BME280;37131;42.694;23.350;2022-07-04T08:29:47;95643.41;;;25.71;44.17
51083;BME280;37131;42.694;23.350;2022-07-04T08:32:13;95642.47;;;25.76;44.79
51083;BME280;37131;42.694;23.350;2022-07-04T08:34:38;95639.94;;;25.70;45.99
51083;BME280;37131;42.694;23.350;2022-07-04T08:37:04;95633.19;;;25.90;44.80
51083;BME280;37131;42.694;23.350;2022-07-04T08:39:30;95636.56;;;26.14;45.22
51083;BME280;37131;42.694;23.350;2022-07-04T08:42:01;95643.00;;;26.21;44.01
51083;BME280;37131;42.694;23.350;2022-07-04T08:44:27;95633.06;;;26.39;45.65
51083;BME280;37131;42.694;23.350;2022-07-04T08:46:54;95627.38;;;26.76;45.88
51083;BME280;37131;42.694;23.350;2022-07-04T08:49:30;95624.34;;;26.95;44.43
51083;BME280;37131;42.694;23.350;2022-07-04T08:52:03;95627.56;;;26.71;44.94
51083;BME280;37131;42.694;23.350;2022-07-04T08:54:30;95622.78;;;26.85;44.42
51083;BME280;37131;42.694;23.350;2022-07-04T08:57:15;95629.50;;;27.00;43.72
51083;BME280;37131;42.694;23.350;2022-07-04T08:59:59;95624.41;;;27.55;44.51
51083;BME280;37131;42.694;23.350;2022-07-04T09:02:28;95622.22;;;27.57;43.82
51083;BME280;37131;42.694;23.350;2022-07-04T09:04:54;95626.28;;;27.33;43.29
51083;BME280;37131;42.694;23.350;2022-07-04T09:07:19;95627.78;;;27.04;44.60
51083;BME280;37131;42.694;23.350;2022-07-04T09:09:45;95624.06;;;27.35;43.50
51083;BME280;37131;42.694;23.350;2022-07-04T09:12:11;95625.19;;;27.85;43.32
51083;BME280;37131;42.694;23.350;2022-07-04T09:14:38;95611.81;;;28.06;42.78
51083;BME280;37131;42.694;23.350;2022-07-04T09:17:05;95616.75;;;27.95;41.39
51083;BME280;37131;42.694;23.350;2022-07-04T09:19:32;95618.97;;;28.35;41.95
51083;BME280;37131;42.694;23.350;2022-07-04T09:22:02;95610.78;;;28.53;40.78
51083;BME280;37131;42.694;23.350;2022-07-04T09:24:52;95621.63;;;27.72;41.29
51083;BME280;37131;42.694;23.350;2022-07-04T09:27:36;95617.72;;;27.99;42.50
51083;BME280;37131;42.694;23.350;2022-07-04T09:30:03;95608.41;;;28.18;42.29
51083;BME280;37131;42.694;23.350;2022-07-04T09:34:59;95604.47;;;28.37;39.93
51083;BME280;37131;42.694;23.350;2022-07-04T09:37:41;95598.56;;;28.77;38.50
51083;BME280;37131;42.694;23.350;2022-07-04T09:40:09;95596.50;;;29.07;37.31
51083;BME280;37131;42.694;23.350;2022-07-04T09:42:41;95592.56;;;29.17;36.57
51083;BME280;37131;42.694;23.350;2022-07-04T09:45:11;95591.88;;;29.20;35.77
51083;BME280;37131;42.694;23.350;2022-07-04T09:47:38;95596.13;;;28.72;35.76
51083;BME280;37131;42.694;23.350;2022-07-04T09:50:13;95592.97;;;28.82;36.26
51083;BME280;37131;42.694;23.350;2022-07-04T09:57:49;95585.63;;;29.03;37.83
51083;BME280;37131;42.694;23.350;2022-07-04T10:00:19;95592.00;;;28.99;37.37
51083;BME280;37131;42.694;23.350;2022-07-04T10:02:44;95576.91;;;29.07;38.48
51083;BME280;37131;42.694;23.350;2022-07-04T10:05:10;95578.81;;;29.43;37.71
51083;BME280;37131;42.694;23.350;2022-07-04T10:07:40;95581.06;;;29.53;37.95
51083;BME280;37131;42.694;23.350;2022-07-04T10:12:51;95586.19;;;29.71;38.17
51083;BME280;37131;42.694;23.350;2022-07-04T10:15:18;95589.34;;;29.48;37.32
51083;BME280;37131;42.694;23.350;2022-07-04T10:17:44;95577.38;;;29.33;38.24
51083;BME280;37131;42.694;23.350;2022-07-04T10:20:13;95581.97;;;29.20;39.40
51083;BME280;37131;42.694;23.350;2022-07-04T10:22:39;95590.09;;;29.73;39.93
51083;BME280;37131;42.694;23.350;2022-07-04T10:25:06;95582.09;;;30.02;37.99
51083;BME280;37131;42.694;23.350;2022-07-04T10:27:32;95582.94;;;29.65;38.50
51083;BME280;37131;42.694;23.350;2022-07-04T10:29:59;95582.88;;;30.02;37.51
51083;BME280;37131;42.694;23.350;2022-07-04T10:32:27;95573.44;;;30.08;37.92
51083;BME280;37131;42.694;23.350;2022-07-04T10:34:53;95573.09;;;30.10;37.48
51083;BME280;37131;42.694;23.350;2022-07-04T10:37:18;95573.56;;;30.00;38.37
51083;BME280;37131;42.694;23.350;2022-07-04T10:39:45;95573.13;;;29.32;38.63
51083;BME280;37131;42.694;23.350;2022-07-04T10:42:22;95563.03;;;29.54;38.73
51083;BME280;37131;42.694;23.350;2022-07-04T10:44:52;95570.41;;;30.10;38.53
51083;BME280;37131;42.694;23.350;2022-07-04T10:47:25;95571.66;;;29.47;38.55
51083;BME280;37131;42.694;23.350;2022-07-04T10:49:52;95562.31;;;29.82;39.18
51083;BME280;37131;42.694;23.350;2022-07-04T10:52:18;95558.66;;;30.31;38.26
51083;BME280;37131;42.694;23.350;2022-07-04T10:54:44;95551.69;;;29.85;37.60
51083;BME280;37131;42.694;23.350;2022-07-04T10:57:11;95549.00;;;30.42;38.85
51083;BME280;37131;42.694;23.350;2022-07-04T10:59:38;95532.06;;;29.85;37.95
51083;BME280;37131;42.694;23.350;2022-07-04T11:04:45;95547.00;;;30.11;38.47
51083;BME280;37131;42.694;23.350;2022-07-04T11:07:18;95551.44;;;30.19;37.55
51083;BME280;37131;42.694;23.350;2022-07-04T11:09:44;95541.56;;;30.23;39.10
51083;BME280;37131;42.694;23.350;2022-07-04T11:12:11;95540.16;;;29.72;38.94
51083;BME280;37131;42.694;23.350;2022-07-04T11:14:45;95504.28;;;29.93;40.16
51083;BME280;37131;42.694;23.350;2022-07-04T11:17:19;95531.47;;;30.48;38.16
51083;BME280;37131;42.694;23.350;2022-07-04T11:19:46;95529.69;;;30.84;37.88
51083;BME280;37131;42.694;23.350;2022-07-04T11:22:12;95529.16;;;31.10;37.89
51083;BME280;37131;42.694;23.350;2022-07-04T11:24:46;95533.56;;;31.19;37.61
51083;BME280;37131;42.694;23.350;2022-07-04T11:27:11;95528.38;;;31.10;35.68
51083;BME280;37131;42.694;23.350;2022-07-04T11:29:37;95534.34;;;31.19;36.85
51083;BME280;37131;42.694;23.350;2022-07-04T11:32:03;95525.84;;;30.53;38.29
51083;BME280;37131;42.694;23.350;2022-07-04T11:34:32;95515.06;;;30.85;38.05
51083;BME280;37131;42.694;23.350;2022-07-04T11:36:58;95526.63;;;30.70;37.47
51083;BME280;37131;42.694;23.350;2022-07-04T11:39:26;95525.06;;;30.85;36.74
51083;BME280;37131;42.694;23.350;2022-07-04T11:41:53;95523.06;;;30.98;38.04
51083;BME280;37131;42.694;23.350;2022-07-04T11:44:41;95517.50;;;31.06;36.22
51083;BME280;37131;42.694;23.350;2022-07-04T11:47:34;95513.78;;;30.95;37.51
51083;BME280;37131;42.694;23.350;2022-07-04T11:50:01;95503.09;;;31.14;36.15
51083;BME280;37131;42.694;23.350;2022-07-04T11:52:39;95502.72;;;31.16;37.50
51083;BME280;37131;42.694;23.350;2022-07-04T11:55:09;95494.66;;;31.16;38.04
51083;BME280;37131;42.694;23.350;2022-07-04T11:57:44;95491.00;;;31.24;36.51
51083;BME280;37131;42.694;23.350;2022-07-04T12:00:17;95501.03;;;31.43;36.47
51083;BME280;37131;42.694;23.350;2022-07-04T12:02:45;95494.09;;;31.26;36.81
51083;BME280;37131;42.694;23.350;2022-07-04T12:05:12;95487.44;;;31.20;36.25
51083;BME280;37131;42.694;23.350;2022-07-04T12:07:40;95483.34;;;31.26;36.67
51083;BME280;37131;42.694;23.350;2022-07-04T12:12:54;95471.59;;;30.67;38.12
51083;BME280;37131;42.694;23.350;2022-07-04T12:15:21;95472.16;;;30.92;37.52
51083;BME280;37131;42.694;23.350;2022-07-04T12:17:52;95460.94;;;31.22;36.67
51083;BME280;37131;42.694;23.350;2022-07-04T12:20:20;95475.19;;;31.23;37.48
51083;BME280;37131;42.694;23.350;2022-07-04T12:22:57;95464.28;;;31.00;37.67
51083;BME280;37131;42.694;23.350;2022-07-04T12:27:57;95463.00;;;31.48;36.40
51083;BME280;37131;42.694;23.350;2022-07-04T12:30:25;95471.97;;;31.72;36.27
51083;BME280;37131;42.694;23.350;2022-07-04T12:32:52;95461.28;;;31.76;36.07
51083;BME280;37131;42.694;23.350;2022-07-04T12:35:41;95460.72;;;31.31;37.34
51083;BME280;37131;42.694;23.350;2022-07-04T12:38:10;95467.34;;;31.53;37.71
51083;BME280;37131;42.694;23.350;2022-07-04T12:40:48;95465.84;;;31.36;36.45
51083;BME280;37131;42.694;23.350;2022-07-04T12:43:14;95451.78;;;31.62;36.34
51083;BME280;37131;42.694;23.350;2022-07-04T12:45:52;95460.78;;;31.70;36.90
51083;BME280;37131;42.694;23.350;2022-07-04T12:48:26;95465.06;;;31.36;37.62
51083;BME280;37131;42.694;23.350;2022-07-04T12:50:52;95456.34;;;31.42;38.38
51083;BME280;37131;42.694;23.350;2022-07-04T12:53:18;95465.13;;;31.20;37.58
51083;BME280;37131;42.694;23.350;2022-07-04T12:55:45;95460.13;;;30.70;38.19
51083;BME280;37131;42.694;23.350;2022-07-04T12:58:11;95466.78;;;30.92;38.24
51083;BME280;37131;42.694;23.350;2022-07-04T13:00:38;95457.25;;;31.11;38.22
51083;BME280;37131;42.694;23.350;2022-07-04T13:03:03;95458.13;;;30.83;38.57
51083;BME280;37131;42.694;23.350;2022-07-04T13:05:30;95442.97;;;31.10;38.92
51083;BME280;37131;42.694;23.350;2022-07-04T13:07:55;95452.50;;;31.24;37.46
51083;BME280;37131;42.694;23.350;2022-07-04T13:10:21;95445.91;;;30.54;38.95